createdAt,value
2018-04-02T12:06:10.786Z,16.2
2018-04-02T12:07:50.868Z,15.1
2018-04-02T12:09:20.643Z,14.6
2018-04-02T12:10:21.715Z,14.4
2018-04-02T12:11:23.572Z,14.7
2018-04-02T12:12:25.531Z,14.5
2018-04-02T12:13:27.431Z,14.6
2018-04-02T12:14:29.572Z,14.8
2018-04-02T12:15:31.517Z,16.4
2018-04-02T12:16:33.407Z,16.4
2018-04-02T12:17:35.312Z,15.7
2018-04-02T12:18:37.190Z,15.5
2018-04-02T12:19:40.121Z,15.6
2018-04-02T12:20:41.942Z,15.5
2018-04-02T12:21:43.842Z,15.6
2018-04-02T12:22:45.793Z,15.7
2018-04-02T12:23:47.823Z,17.4
2018-04-02T12:24:49.837Z,19.2
2018-04-02T12:25:51.926Z,20.2
2018-04-02T12:26:53.864Z,22.2
2018-04-02T12:27:55.723Z,22.4
2018-04-02T12:28:58.785Z,20.9
2018-04-02T12:30:00.823Z,21.8
2018-04-02T12:31:02.856Z,22.0
2018-04-02T12:32:04.685Z,20.0
2018-04-02T12:33:06.590Z,17.9
2018-04-02T12:34:08.575Z,16.9
2018-04-02T12:35:10.345Z,16.1
2018-04-02T12:36:12.117Z,15.9
2018-04-02T12:37:14.118Z,16.7
2018-04-02T12:38:16.018Z,18.0
2018-04-02T12:39:17.909Z,21.0
2018-04-02T12:40:20.655Z,23.0
2018-04-02T12:41:23.074Z,24.7
2018-04-02T12:42:25.432Z,23.9
2018-04-02T12:43:27.365Z,24.7
2018-04-02T12:44:29.029Z,24.6
2018-04-02T12:45:30.602Z,23.9
2018-04-02T12:46:32.235Z,22.9
2018-04-02T12:47:33.859Z,22.8
2018-04-02T12:48:35.520Z,23.1
2018-04-02T12:49:37.217Z,23.7
2018-04-02T12:50:38.916Z,23.8
2018-04-02T12:51:40.566Z,25.1
2018-04-02T12:52:42.139Z,24.2
2018-04-02T12:53:43.712Z,24.7
2018-04-02T12:54:45.335Z,24.0
2018-04-02T12:55:47.028Z,24.7
2018-04-02T12:56:48.718Z,23.9
2018-04-02T12:57:50.389Z,22.4
2018-04-02T12:58:52.186Z,22.2
2018-04-02T12:59:53.819Z,22.3
2018-04-02T13:00:55.497Z,21.5
2018-04-02T13:01:57.130Z,21.0
2018-04-02T13:02:58.811Z,21.5
2018-04-02T13:04:00.460Z,22.7
2018-04-02T13:05:02.129Z,22.0
2018-04-02T13:06:03.756Z,23.1
2018-04-02T13:07:05.489Z,23.2
2018-04-02T13:08:07.117Z,24.5
2018-04-02T13:09:08.749Z,24.0
2018-04-02T13:10:10.436Z,21.9
2018-04-02T13:11:12.188Z,21.1
2018-04-02T13:12:13.819Z,20.3
2018-04-02T13:13:15.484Z,20.5
2018-04-02T13:14:17.089Z,22.5
2018-04-02T13:15:19.012Z,24.1
2018-04-02T13:16:20.666Z,25.2
2018-04-02T13:17:22.423Z,25.8
2018-04-02T13:18:24.032Z,26.2
2018-04-02T13:19:25.689Z,25.9
2018-04-02T13:20:27.321Z,25.9
2018-04-02T13:21:29.056Z,26.4
2018-04-02T13:22:30.726Z,26.5
2018-04-02T13:23:32.368Z,25.3
2018-04-02T13:24:33.992Z,25.7
2018-04-02T13:25:35.690Z,26.1
2018-04-02T13:26:37.334Z,26.4
2018-04-02T13:27:39.003Z,26.7
2018-04-02T13:28:40.619Z,26.4
2018-04-02T13:29:42.266Z,25.9
2018-04-02T13:30:43.965Z,25.0
2018-04-02T13:31:45.575Z,24.1
2018-04-02T13:32:47.652Z,23.6
2018-04-02T13:33:49.511Z,23.2
2018-04-02T13:34:51.164Z,22.9
2018-04-02T13:35:52.772Z,23.3
2018-04-02T13:36:54.415Z,23.9
2018-04-02T13:37:55.996Z,23.1
2018-04-02T13:38:57.741Z,23.1
2018-04-02T13:39:59.226Z,23.9
2018-04-02T13:41:00.922Z,25.0
2018-04-02T13:42:03.053Z,25.6
2018-04-02T13:43:04.682Z,26.5
2018-04-02T13:44:06.296Z,26.2
2018-04-02T13:45:07.941Z,25.8
2018-04-02T13:46:09.526Z,26.3
2018-04-02T13:47:11.192Z,27.2
2018-04-02T13:48:12.736Z,27.8
2018-04-02T13:49:14.314Z,27.9
2018-04-02T13:50:15.869Z,27.9
2018-04-02T13:51:17.361Z,27.8
2018-04-02T13:52:18.891Z,27.8
2018-04-02T13:53:20.476Z,25.4
2018-04-02T13:54:22.140Z,24.2
2018-04-02T13:55:23.761Z,23.5
2018-04-02T13:56:29.799Z,22.9
2018-04-02T13:57:34.166Z,24.1
2018-04-02T13:58:35.798Z,23.8
2018-04-02T13:59:38.559Z,23.3
2018-04-02T14:00:40.222Z,23.7
2018-04-02T14:01:42.082Z,21.5
2018-04-02T14:02:43.701Z,22.1
2018-04-02T14:03:45.564Z,21.9
2018-04-02T14:04:48.204Z,22.1
2018-04-02T14:05:49.880Z,22.9
2018-04-02T14:06:51.816Z,22.9
2018-04-02T14:07:53.541Z,22.2
2018-04-02T14:08:56.173Z,20.9
2018-04-02T14:09:56.602Z,20.1
2018-04-02T14:10:58.137Z,20.5
2018-04-02T14:11:59.598Z,21.6
2018-04-02T14:13:01.164Z,22.0
2018-04-02T14:14:02.617Z,22.1
2018-04-02T14:15:04.214Z,21.9
2018-04-02T14:16:07.651Z,22.2
2018-04-02T14:17:09.213Z,22.8
2018-04-02T14:18:10.866Z,23.8
2018-04-02T14:19:12.541Z,24.1
2018-04-02T14:20:14.049Z,24.3
2018-04-02T14:21:15.602Z,25.0
2018-04-02T14:22:17.172Z,25.5
2018-04-02T14:23:18.781Z,24.7
2018-04-02T14:24:20.260Z,25.3
2018-04-02T14:25:21.911Z,25.1
2018-04-02T14:26:23.458Z,25.1
2018-04-02T14:27:24.946Z,25.3
2018-04-02T14:28:26.470Z,24.5
2018-04-02T14:29:27.977Z,24.4
2018-04-02T14:30:29.536Z,25.1
2018-04-02T14:31:31.200Z,25.7
2018-04-02T14:32:32.824Z,24.9
2018-04-02T14:33:34.408Z,24.8
2018-04-02T14:34:35.900Z,25.6
2018-04-02T14:35:37.483Z,26.1
2018-04-02T14:36:39.116Z,26.7
2018-04-02T14:37:40.629Z,26.6
2018-04-02T14:38:42.177Z,25.0
2018-04-02T14:39:43.797Z,24.6
2018-04-02T14:40:45.362Z,24.3
2018-04-02T14:41:47.004Z,24.1
2018-04-02T14:42:48.570Z,25.1
2018-04-02T14:43:50.349Z,25.3
2018-04-02T14:44:51.936Z,25.4
2018-04-02T14:45:53.631Z,26.1
2018-04-02T14:46:55.187Z,26.5
2018-04-02T14:47:56.826Z,26.8
2018-04-02T14:48:58.396Z,26.3
2018-04-02T14:49:59.969Z,25.6
2018-04-02T14:51:01.689Z,24.1
2018-04-02T14:52:03.307Z,24.1
2018-04-02T14:53:04.866Z,23.9
2018-04-02T14:54:06.471Z,23.1
2018-04-02T14:55:08.164Z,22.5
2018-04-02T14:56:09.764Z,22.7
2018-04-02T14:57:11.413Z,23.2
2018-04-02T14:58:13.012Z,23.4
2018-04-02T14:59:14.604Z,23.7
2018-04-02T15:00:16.275Z,23.2
2018-04-02T15:01:18.990Z,23.8
2018-04-02T15:02:20.619Z,23.1
2018-04-02T15:03:22.225Z,23.1
2018-04-02T15:04:23.851Z,22.7
2018-04-02T15:05:25.514Z,23.2
2018-04-02T15:06:27.138Z,23.2
2018-04-02T15:07:28.771Z,23.5
2018-04-02T15:08:30.309Z,23.5
2018-04-02T15:09:31.907Z,23.4
2018-04-02T15:10:34.598Z,23.7
2018-04-02T15:11:36.315Z,23.6
2018-04-02T15:12:37.878Z,23.0
2018-04-02T15:13:39.556Z,22.0
2018-04-02T15:14:41.150Z,22.4
2018-04-02T15:15:42.780Z,21.9
2018-04-02T15:16:44.429Z,22.2
2018-04-02T15:17:46.006Z,21.8
2018-04-02T15:18:47.630Z,21.2
2018-04-02T15:19:49.231Z,20.7
2018-04-02T15:20:50.810Z,21.1
2018-04-02T15:21:52.421Z,20.8
2018-04-02T15:22:53.927Z,20.2
2018-04-02T15:23:55.546Z,20.6
2018-04-02T15:24:57.125Z,20.8
2018-04-02T15:25:58.686Z,21.0
2018-04-02T15:27:00.364Z,21.2
2018-04-02T15:28:01.934Z,20.2
2018-04-02T15:29:03.559Z,19.9
2018-04-02T15:30:05.245Z,19.3
2018-04-02T15:31:06.803Z,19.6
2018-04-02T15:32:08.483Z,20.1
2018-04-02T15:33:10.104Z,19.8
2018-04-02T15:34:13.874Z,19.9
2018-04-02T15:35:15.444Z,19.6
2018-04-02T15:36:17.027Z,18.9
2018-04-02T15:37:18.589Z,18.3
2018-04-02T15:38:20.118Z,18.0
2018-04-02T15:39:21.679Z,18.0
2018-04-02T15:40:23.226Z,17.6
2018-04-02T15:41:24.851Z,17.3
2018-04-02T15:42:26.452Z,17.3
2018-04-02T15:43:28.083Z,16.9
2018-04-02T15:44:29.614Z,16.7
2018-04-02T15:45:31.220Z,16.4
2018-04-02T15:46:32.897Z,16.6
2018-04-02T15:47:34.511Z,16.4
2018-04-02T15:48:36.171Z,16.9
2018-04-02T15:49:37.763Z,17.4
2018-04-02T15:50:39.338Z,17.4
2018-04-02T15:51:40.981Z,17.4
2018-04-02T15:52:42.580Z,17.4
2018-04-02T15:53:44.228Z,17.4
2018-04-02T15:54:45.785Z,17.4
2018-04-02T15:55:47.510Z,17.1
2018-04-02T15:56:49.184Z,16.9
2018-04-02T15:57:50.727Z,17.0
2018-04-02T15:58:52.346Z,17.1
2018-04-02T15:59:53.922Z,17.7
2018-04-02T16:00:55.535Z,17.5
2018-04-02T16:01:57.146Z,17.1
2018-04-02T16:02:58.745Z,17.2
2018-04-02T16:04:00.397Z,17.4
2018-04-02T16:05:01.966Z,17.6
2018-04-02T16:06:03.569Z,17.3
2018-04-02T16:07:05.152Z,16.7
2018-04-02T16:08:06.660Z,16.2
2018-04-02T16:09:08.260Z,16.0
2018-04-02T16:10:09.946Z,15.9
2018-04-02T16:11:11.582Z,15.9
2018-04-02T16:12:13.235Z,16.1
2018-04-02T16:13:14.857Z,16.3
2018-04-02T16:14:16.369Z,16.3
2018-04-02T16:15:17.945Z,16.5
2018-04-02T16:16:19.570Z,16.2
2018-04-02T16:17:21.137Z,16.2
2018-04-02T16:18:22.748Z,16.1
2018-04-02T16:19:24.373Z,15.7
2018-04-02T16:20:26.011Z,15.6
2018-04-02T16:21:27.611Z,15.6
2018-04-02T16:22:29.278Z,15.6
2018-04-02T16:23:30.908Z,15.3
2018-04-02T16:24:32.508Z,15.1
2018-04-02T16:25:34.177Z,15.0
2018-04-02T16:26:35.766Z,15.0
2018-04-02T16:27:37.437Z,15.0
2018-04-02T16:28:38.997Z,14.9
2018-04-02T16:29:40.576Z,15.0
2018-04-02T16:30:42.194Z,14.9
2018-04-02T16:31:43.872Z,14.8
2018-04-02T16:32:45.642Z,14.8
2018-04-02T16:33:47.411Z,14.6
2018-04-02T16:34:48.962Z,14.6
2018-04-02T16:35:50.550Z,14.5
2018-04-02T16:36:52.079Z,14.5
2018-04-02T16:37:53.556Z,14.5
2018-04-02T16:38:55.147Z,14.6
2018-04-02T16:39:56.676Z,14.6
2018-04-02T16:40:58.286Z,14.5
2018-04-02T16:41:59.847Z,14.5
2018-04-02T16:43:01.425Z,14.5
2018-04-02T16:44:03.019Z,14.5
2018-04-02T16:45:04.576Z,14.5
2018-04-02T16:46:06.122Z,14.5
2018-04-02T16:47:07.614Z,14.4
2018-04-02T16:48:09.146Z,14.2
2018-04-02T16:49:10.676Z,14.3
2018-04-02T16:50:12.259Z,14.3
2018-04-02T16:51:13.806Z,14.2
2018-04-02T16:52:15.327Z,14.2
2018-04-02T16:53:16.847Z,14.1
2018-04-02T16:54:18.494Z,14.0
2018-04-02T16:55:20.026Z,13.9
2018-04-02T16:56:21.845Z,13.9
2018-04-02T16:57:28.409Z,13.9
2018-04-02T16:58:29.989Z,13.9
2018-04-02T16:59:32.001Z,13.9
2018-04-02T17:00:34.051Z,13.8
2018-04-02T17:01:35.922Z,13.8
2018-04-02T17:02:40.930Z,13.9
2018-04-02T17:03:43.335Z,13.8
2018-04-02T17:04:45.094Z,13.8
2018-04-02T17:05:47.077Z,13.8
2018-04-02T17:06:49.020Z,13.7
2018-04-02T17:07:50.952Z,13.6
2018-04-02T17:08:52.813Z,13.7
2018-04-02T17:09:54.945Z,13.7
2018-04-02T17:10:56.865Z,13.7
2018-04-02T17:11:58.628Z,13.7
2018-04-02T17:13:00.525Z,13.6
2018-04-02T17:14:02.702Z,13.6
2018-04-02T17:15:04.460Z,13.6
2018-04-02T17:16:06.152Z,13.6
2018-04-02T17:17:07.975Z,13.5
2018-04-02T17:18:09.745Z,13.6
2018-04-02T17:19:11.909Z,13.5
2018-04-02T17:20:13.449Z,13.6
2018-04-02T17:21:16.955Z,13.5
2018-04-02T17:23:17.088Z,13.4
2018-04-02T17:24:19.290Z,13.3
2018-04-02T17:25:48.552Z,13.3
2018-04-02T17:26:50.518Z,13.3
2018-04-02T17:27:52.303Z,13.2
2018-04-02T17:28:54.252Z,13.2
2018-04-02T17:29:56.341Z,13.2
2018-04-02T17:30:58.389Z,13.1
2018-04-02T17:32:00.101Z,13.2
2018-04-02T17:33:02.861Z,13.1
2018-04-02T17:34:04.573Z,13.1
2018-04-02T17:35:08.186Z,13.0
2018-04-02T17:36:21.432Z,13.0
2018-04-02T17:37:23.641Z,13.0
2018-04-02T17:42:01.701Z,13.0
2018-04-02T17:43:03.148Z,13.0
2018-04-02T17:44:07.837Z,13.0
2018-04-02T17:45:09.393Z,13.0
2018-04-02T17:46:11.979Z,12.8
2018-04-02T17:47:13.674Z,12.9
2018-04-02T17:48:15.441Z,12.8
2018-04-02T17:49:17.003Z,12.7
2018-04-02T17:50:18.756Z,12.7
2018-04-02T17:51:20.198Z,12.8
2018-04-02T17:52:21.693Z,12.8
2018-04-02T17:53:23.198Z,12.7
2018-04-02T17:54:24.757Z,12.8
2018-04-02T17:55:26.839Z,12.8
2018-04-02T17:56:28.784Z,12.8
2018-04-02T17:57:30.309Z,12.7
2018-04-02T17:58:31.979Z,12.7
2018-04-02T17:59:33.718Z,12.7
2018-04-02T18:00:35.450Z,12.6
2018-04-02T18:01:37.369Z,12.6
2018-04-02T18:02:39.311Z,12.6
2018-04-02T18:03:46.299Z,12.6
2018-04-02T18:04:47.921Z,12.5
2018-04-02T18:05:49.788Z,12.5
2018-04-02T18:06:51.588Z,12.4
2018-04-02T18:07:53.577Z,12.5
2018-04-02T18:08:57.030Z,12.5
2018-04-02T18:09:59.982Z,12.4
2018-04-02T18:11:02.309Z,12.3
2018-04-02T18:12:04.312Z,12.3
2018-04-02T18:13:06.626Z,12.4
2018-04-02T18:14:13.940Z,12.4
2018-04-02T18:15:16.451Z,12.3
2018-04-02T18:16:19.096Z,12.2
2018-04-02T18:17:21.363Z,12.2
2018-04-02T18:18:22.977Z,12.2
2018-04-02T18:19:25.203Z,12.2
2018-04-02T18:20:26.949Z,12.2
2018-04-02T18:21:28.547Z,12.2
2018-04-02T18:22:30.082Z,12.1
2018-04-02T18:23:32.301Z,12.2
2018-04-02T18:24:33.815Z,12.2
2018-04-02T18:25:35.423Z,12.1
2018-04-02T18:26:37.015Z,12.0
2018-04-02T18:27:38.507Z,12.0
2018-04-02T18:28:40.151Z,12.0
2018-04-02T18:29:41.737Z,12.0
2018-04-02T18:30:43.392Z,11.9
2018-04-02T18:31:44.917Z,11.8
2018-04-02T18:32:46.514Z,11.9
2018-04-02T18:33:48.086Z,11.8
2018-04-02T18:34:49.673Z,11.8
2018-04-02T18:35:51.232Z,11.9
2018-04-02T18:36:53.374Z,11.8
2018-04-02T18:37:55.078Z,11.8
2018-04-02T18:38:56.631Z,11.8
2018-04-02T18:39:58.165Z,11.8
2018-04-02T18:40:59.683Z,11.7
2018-04-02T18:42:01.243Z,11.7
2018-04-02T18:43:02.755Z,11.7
2018-04-02T18:44:04.267Z,11.8
2018-04-02T18:45:05.799Z,11.6
2018-04-02T18:46:07.229Z,11.6
2018-04-02T18:47:08.872Z,11.6
2018-04-02T18:48:10.387Z,11.6
2018-04-02T18:49:12.014Z,11.6
2018-04-02T18:50:13.512Z,11.7
2018-04-02T18:51:15.059Z,11.7
2018-04-02T18:52:16.575Z,11.6
2018-04-02T18:53:18.067Z,11.7
2018-04-02T18:54:19.612Z,11.6
2018-04-02T18:55:21.086Z,11.6
2018-04-02T18:56:22.754Z,11.6
2018-04-02T18:57:24.265Z,11.6
2018-04-02T18:58:25.810Z,11.6
2018-04-02T18:59:27.387Z,11.6
2018-04-02T19:00:28.927Z,11.6
2018-04-02T19:01:31.560Z,11.6
2018-04-02T19:02:33.061Z,11.6
2018-04-02T19:03:34.625Z,11.6
2018-04-02T19:04:36.204Z,11.6
2018-04-02T19:05:37.745Z,11.6
2018-04-02T19:06:39.298Z,11.6
2018-04-02T19:07:40.738Z,11.6
2018-04-02T19:08:42.315Z,11.6
2018-04-02T19:09:43.792Z,11.6
2018-04-02T19:10:45.348Z,11.7
2018-04-02T19:11:46.830Z,11.6
2018-04-02T19:12:48.379Z,11.6
2018-04-02T19:13:49.843Z,11.5
2018-04-02T19:14:51.423Z,11.5
2018-04-02T19:15:52.967Z,11.5
2018-04-02T19:16:54.466Z,11.6
2018-04-02T19:17:56.019Z,11.5
2018-04-02T19:18:57.513Z,11.5
2018-04-02T19:19:59.118Z,11.5
2018-04-02T19:21:00.632Z,11.5
2018-04-02T19:22:02.100Z,11.4
2018-04-02T19:23:03.573Z,11.4
2018-04-02T19:24:05.114Z,11.5
2018-04-02T19:25:06.668Z,11.5
2018-04-02T19:26:08.173Z,11.5
2018-04-02T19:27:10.048Z,11.5
2018-04-02T19:28:13.148Z,11.5
2018-04-02T19:29:14.613Z,11.5
2018-04-02T19:30:16.119Z,11.6
2018-04-02T19:31:17.634Z,11.6
2018-04-02T19:32:19.329Z,11.6
2018-04-02T19:33:21.082Z,11.5
2018-04-02T19:34:22.581Z,11.5
2018-04-02T19:35:24.063Z,11.5
2018-04-02T19:36:25.577Z,11.5
2018-04-02T19:37:27.038Z,11.5
2018-04-02T19:38:28.474Z,11.5
2018-04-02T19:39:29.926Z,11.5
2018-04-02T19:40:31.409Z,11.4
2018-04-02T19:41:32.894Z,11.4
2018-04-02T19:42:34.471Z,11.4
2018-04-02T19:43:36.007Z,11.5
2018-04-02T19:44:37.465Z,11.4
2018-04-02T19:45:39.007Z,11.4
2018-04-02T19:46:40.500Z,11.4
2018-04-02T19:47:42.045Z,11.4
2018-04-02T19:48:43.504Z,11.4
2018-04-02T19:49:45.011Z,11.4
2018-04-02T19:50:46.517Z,11.5
2018-04-02T19:51:48.508Z,11.4
2018-04-02T19:52:50.031Z,11.4
2018-04-02T19:53:51.612Z,11.4
2018-04-02T19:54:53.150Z,11.5
2018-04-02T19:55:54.706Z,11.5
2018-04-02T19:56:56.183Z,11.4
2018-04-02T19:57:57.858Z,11.4
2018-04-02T19:58:59.321Z,11.4
2018-04-02T20:00:00.878Z,11.4
2018-04-02T20:01:02.364Z,11.5
2018-04-02T20:02:03.900Z,11.5
2018-04-02T20:03:05.734Z,11.4
2018-04-02T20:04:07.246Z,11.4
2018-04-02T20:05:08.802Z,11.5
2018-04-02T20:06:10.346Z,11.5
2018-04-02T20:07:12.265Z,11.5
2018-04-02T20:08:13.967Z,11.5
2018-04-02T20:09:15.494Z,11.6
2018-04-02T20:10:17.127Z,11.5
2018-04-02T20:11:18.648Z,11.5
2018-04-02T20:12:20.209Z,11.5
2018-04-02T20:13:21.716Z,11.6
2018-04-02T20:14:23.694Z,11.5
2018-04-02T20:15:25.355Z,11.6
2018-04-02T20:16:26.872Z,11.5
2018-04-02T20:17:28.370Z,11.5
2018-04-02T20:18:31.569Z,11.5
2018-04-02T20:19:32.986Z,11.4
2018-04-02T20:20:34.519Z,11.4
2018-04-02T20:21:36.229Z,11.4
2018-04-02T20:22:37.706Z,11.3
2018-04-02T20:23:39.229Z,11.2
2018-04-02T20:24:40.800Z,11.3
2018-04-02T20:25:42.312Z,11.3
2018-04-02T20:26:43.824Z,11.3
2018-04-02T20:27:45.340Z,11.3
2018-04-02T20:28:46.950Z,11.2
2018-04-02T20:29:48.379Z,11.2
2018-04-02T20:30:49.960Z,11.2
2018-04-02T20:31:51.412Z,11.2
2018-04-02T20:32:53.084Z,11.2
2018-04-02T20:33:54.670Z,11.2
2018-04-02T20:34:56.272Z,11.1
2018-04-02T20:35:57.772Z,11.1
2018-04-02T20:36:59.658Z,11.2
2018-04-02T20:38:01.205Z,11.0
2018-04-02T20:39:02.702Z,11.0
2018-04-02T20:40:04.223Z,11.2
2018-04-02T20:41:06.013Z,11.1
2018-04-02T20:42:07.615Z,11.1
2018-04-02T20:43:09.094Z,11.1
2018-04-02T20:44:10.690Z,11.1
2018-04-02T20:45:12.231Z,11.2
2018-04-02T20:46:14.850Z,11.1
2018-04-02T20:47:16.363Z,11.1
2018-04-02T20:48:18.118Z,11.1
2018-04-02T20:49:19.700Z,11.3
2018-04-02T20:50:21.223Z,11.1
2018-04-02T20:51:22.747Z,11.2
2018-04-02T20:52:24.277Z,11.1
2018-04-02T20:53:26.543Z,11.0
2018-04-02T20:54:27.914Z,11.1
2018-04-02T20:55:29.654Z,11.1
2018-04-02T20:56:31.287Z,11.1
2018-04-02T20:57:32.809Z,11.1
2018-04-02T20:58:34.651Z,11.0
2018-04-02T20:59:36.198Z,11.1
2018-04-02T21:00:37.711Z,11.0
2018-04-02T21:01:39.206Z,11.1
2018-04-02T21:02:41.205Z,11.0
2018-04-02T21:03:42.712Z,11.0
2018-04-02T21:04:44.250Z,11.0
2018-04-02T21:05:45.762Z,11.0
2018-04-02T21:06:47.269Z,11.1
2018-04-02T21:07:48.754Z,11.0
2018-04-02T21:08:50.292Z,11.1
2018-04-02T21:09:51.869Z,11.0
2018-04-02T21:10:53.460Z,11.0
2018-04-02T21:11:55.232Z,11.1
2018-04-02T21:12:58.977Z,11.0
2018-04-02T21:14:01.064Z,11.0
2018-04-02T21:15:02.594Z,11.0
2018-04-02T21:16:04.175Z,11.0
2018-04-02T21:17:05.648Z,11.0
2018-04-02T21:18:07.220Z,11.0
2018-04-02T21:19:08.898Z,10.9
2018-04-02T21:20:10.793Z,10.9
2018-04-02T21:21:12.306Z,10.9
2018-04-02T21:22:14.052Z,11.0
2018-04-02T21:23:15.630Z,10.9
2018-04-02T21:24:17.183Z,10.9
2018-04-02T21:25:19.139Z,10.9
2018-04-02T21:26:20.797Z,10.9
2018-04-02T21:27:22.313Z,10.9
2018-04-02T21:28:23.866Z,11.0
2018-04-02T21:29:25.788Z,10.8
2018-04-02T21:30:27.470Z,10.9
2018-04-02T21:31:28.987Z,10.8
2018-04-02T21:32:30.617Z,10.8
2018-04-02T21:33:32.182Z,10.8
2018-04-02T21:34:33.836Z,10.8
2018-04-02T21:35:35.384Z,10.9
2018-04-02T21:36:36.932Z,10.9
2018-04-02T21:37:39.011Z,10.8
2018-04-02T21:38:40.684Z,10.8
2018-04-02T21:39:42.324Z,10.8
2018-04-02T21:40:43.837Z,10.8
2018-04-02T21:41:45.329Z,10.8
2018-04-02T21:42:46.910Z,10.8
2018-04-02T21:43:48.437Z,10.8
2018-04-02T21:44:49.986Z,10.8
2018-04-02T21:45:51.572Z,10.8
2018-04-02T21:46:53.072Z,10.7
2018-04-02T21:47:54.698Z,10.8
2018-04-02T21:48:56.265Z,10.8
2018-04-02T21:49:57.884Z,10.8
2018-04-02T21:50:59.445Z,10.7
2018-04-02T21:52:00.981Z,10.8
2018-04-02T21:53:02.555Z,10.8
2018-04-02T21:54:04.345Z,10.8
2018-04-02T21:55:05.981Z,10.8
2018-04-02T21:56:07.524Z,10.6
2018-04-02T21:57:09.054Z,10.7
2018-04-02T21:58:10.592Z,10.7
2018-04-02T21:59:12.211Z,10.7
2018-04-02T22:00:13.737Z,10.6
2018-04-02T22:01:15.244Z,10.6
2018-04-02T22:02:16.751Z,10.6
2018-04-02T22:03:18.326Z,10.6
2018-04-02T22:04:19.856Z,10.6
2018-04-02T22:05:21.448Z,10.6
2018-04-02T22:06:22.976Z,10.7
2018-04-02T22:07:24.543Z,10.6
2018-04-02T22:08:26.099Z,10.6
2018-04-02T22:09:27.723Z,10.6
2018-04-02T22:10:29.263Z,10.6
2018-04-02T22:11:30.836Z,10.6
2018-04-02T22:12:32.527Z,10.6
2018-04-02T22:13:34.116Z,10.5
2018-04-02T22:14:35.666Z,10.5
2018-04-02T22:15:37.261Z,10.5
2018-04-02T22:16:38.804Z,10.4
2018-04-02T22:17:40.288Z,10.4
2018-04-02T22:18:41.778Z,10.3
2018-04-02T22:19:43.420Z,10.4
2018-04-02T22:20:44.965Z,10.2
2018-04-02T22:21:46.442Z,10.2
2018-04-02T22:22:47.951Z,10.1
2018-04-02T22:23:50.116Z,10.0
2018-04-02T22:24:51.658Z,10.1
2018-04-02T22:25:53.229Z,10.0
2018-04-02T22:26:55.567Z,10.0
2018-04-02T22:27:57.150Z,10.1
2018-04-02T22:28:58.852Z,10.1
2018-04-02T22:30:00.710Z,10.0
2018-04-02T22:31:02.214Z,10.1
2018-04-02T22:32:03.743Z,10.1
2018-04-02T22:33:05.254Z,10.0
2018-04-02T22:34:06.780Z,10.2
2018-04-02T22:35:08.358Z,10.2
2018-04-02T22:36:09.962Z,10.2
2018-04-02T22:37:11.489Z,10.2
2018-04-02T22:38:13.083Z,10.2
2018-04-02T22:39:14.653Z,10.3
2018-04-02T22:40:16.193Z,10.3
2018-04-02T22:41:17.697Z,10.3
2018-04-02T22:42:19.243Z,10.4
2018-04-02T22:43:20.759Z,10.4
2018-04-02T22:44:22.290Z,10.4
2018-04-02T22:45:23.855Z,10.5
2018-04-02T22:46:25.440Z,10.5
2018-04-02T22:47:26.953Z,10.6
2018-04-02T22:48:28.535Z,10.5
2018-04-02T22:49:30.126Z,10.5
2018-04-02T22:50:31.693Z,10.6
2018-04-02T22:51:33.300Z,10.6
2018-04-02T22:52:34.794Z,10.5
2018-04-02T22:53:36.395Z,10.6
2018-04-02T22:54:37.998Z,10.6
2018-04-02T22:55:39.483Z,10.6
2018-04-02T22:56:41.032Z,10.5
2018-04-02T22:57:42.588Z,10.6
2018-04-02T22:58:44.219Z,10.5
2018-04-02T22:59:45.719Z,10.5
2018-04-02T23:00:47.290Z,10.6
2018-04-02T23:01:48.792Z,10.5
2018-04-02T23:02:50.318Z,10.5
2018-04-02T23:03:51.847Z,10.6
2018-04-02T23:04:53.337Z,10.6
2018-04-02T23:05:54.872Z,10.5
2018-04-02T23:06:56.478Z,10.5
2018-04-02T23:07:58.035Z,10.6
2018-04-02T23:08:59.471Z,10.6
2018-04-02T23:10:01.081Z,10.6
2018-04-02T23:11:02.664Z,10.6
2018-04-02T23:12:04.193Z,10.6
2018-04-02T23:13:05.748Z,10.7
2018-04-02T23:14:07.260Z,10.7
2018-04-02T23:15:08.839Z,10.8
2018-04-02T23:16:10.377Z,10.8
2018-04-02T23:17:11.918Z,10.8
2018-04-02T23:18:13.403Z,10.7
2018-04-02T23:19:14.941Z,10.9
2018-04-02T23:20:16.536Z,10.9
2018-04-02T23:21:18.003Z,10.8
2018-04-02T23:22:19.545Z,10.8
2018-04-02T23:23:21.117Z,10.8
2018-04-02T23:24:22.718Z,10.8
2018-04-02T23:25:24.221Z,10.9
2018-04-02T23:26:25.793Z,10.8
2018-04-02T23:27:27.270Z,10.8
2018-04-02T23:28:28.769Z,10.8
2018-04-02T23:29:30.328Z,10.8
2018-04-02T23:30:31.846Z,10.8
2018-04-02T23:31:33.380Z,10.8
2018-04-02T23:32:34.902Z,10.8
2018-04-02T23:33:36.409Z,10.8
2018-04-02T23:34:37.961Z,10.8
2018-04-02T23:35:39.558Z,10.7
2018-04-02T23:36:41.070Z,10.8
2018-04-02T23:37:42.621Z,10.8
2018-04-02T23:38:44.187Z,10.7
2018-04-02T23:39:45.705Z,10.9
2018-04-02T23:40:47.188Z,10.9
2018-04-02T23:41:48.753Z,10.9
2018-04-02T23:42:50.290Z,10.9
2018-04-02T23:43:52.100Z,10.9
2018-04-02T23:44:53.610Z,11.0
2018-04-02T23:45:55.148Z,10.9
2018-04-02T23:46:56.736Z,11.0
2018-04-02T23:47:58.222Z,10.9
2018-04-02T23:48:59.754Z,10.9
2018-04-02T23:50:01.249Z,10.9
2018-04-02T23:51:02.816Z,10.9
2018-04-02T23:52:04.381Z,11.0
2018-04-02T23:53:05.985Z,11.0
2018-04-02T23:54:07.508Z,11.0
2018-04-02T23:55:09.034Z,11.0
2018-04-02T23:56:10.584Z,11.0
2018-04-02T23:57:12.081Z,11.0
2018-04-02T23:58:13.673Z,11.0
2018-04-02T23:59:15.159Z,11.0
